Time,TemperatureF,DewpointF,PressureIn,WindDirection,WindDirectionDegrees,WindSpeedMPH,WindSpeedGustMPH,Humidity,HourlyPrecipIn,Conditions,Clouds,dailyrainin,SoftwareType,DateUTC
2014-02-07 00:22:00,-1.0,-3.0,29.82,North,0,0.0,0.0,89,1.90,,,-99.99,,2014-02-07 06:22:00,
2014-02-07 00:52:00,-2.0,-4.0,29.81,North,0,0.0,0.0,89,1.90,,,-99.99,,2014-02-07 06:52:00,
2014-02-07 01:22:00,-1.0,-3.0,29.81,North,0,0.0,0.0,89,1.90,,,-99.99,,2014-02-07 07:22:00,
2014-02-07 01:52:00,-1.0,-3.0,29.80,North,0,0.0,0.0,90,1.90,,,-99.99,,2014-02-07 07:52:00,
2014-02-07 02:22:00,-2.0,-4.0,29.82,North,0,0.0,0.0,90,1.90,,,-99.99,,2014-02-07 08:22:00,
2014-02-07 02:52:00,-2.0,-4.0,29.79,North,0,0.0,0.0,90,1.90,,,-99.99,,2014-02-07 08:52:00,
2014-02-07 03:22:00,-3.0,-5.0,29.78,North,0,0.0,0.0,91,1.90,,,-99.99,,2014-02-07 09:22:00,
2014-02-07 03:53:00,-3.0,-5.0,29.77,North,0,0.0,0.0,91,1.90,,,-99.99,,2014-02-07 09:53:00,
2014-02-07 04:23:00,-2.0,-4.0,29.77,North,0,0.0,0.0,91,1.90,,,-99.99,,2014-02-07 10:23:00,
2014-02-07 04:53:00,-3.0,-5.0,29.77,North,0,0.0,0.0,91,1.90,,,-99.99,,2014-02-07 10:53:00,
2014-02-07 05:22:00,-3.0,-5.0,29.77,North,0,0.0,0.0,91,1.90,,,-99.99,,2014-02-07 11:22:00,
2014-02-07 05:52:00,-3.0,-5.0,29.77,South,176,4.0,5.0,91,1.90,,,-99.99,,2014-02-07 11:52:00,
2014-02-07 06:22:00,-1.0,-3.0,29.76,North,0,0.0,0.0,91,1.90,,,-99.99,,2014-02-07 12:22:00,
2014-02-07 06:52:00,-1.0,-3.0,29.76,North,0,0.0,0.0,91,1.90,,,-99.99,,2014-02-07 12:52:00,
2014-02-07 07:22:00,-2.0,-4.0,29.76,North,0,0.0,0.0,91,1.90,,,-99.99,,2014-02-07 13:22:00,
2014-02-07 07:53:00,-2.0,-4.0,29.75,North,0,0.0,0.0,91,1.90,,,-99.99,,2014-02-07 13:53:00,
2014-02-07 08:22:00,0.0,-2.0,29.75,South,177,4.0,6.0,91,1.90,,,-99.99,,2014-02-07 14:22:00,
2014-02-07 08:52:00,3.0,1.0,29.75,North,0,0.0,0.0,91,1.90,,,-99.99,,2014-02-07 14:52:00,
2014-02-07 09:22:00,5.0,3.0,29.70,North,0,0.0,0.0,91,1.90,,,-99.99,,2014-02-07 15:22:00,
2014-02-07 09:53:00,9.0,7.0,29.75,SSW,203,5.0,9.0,90,1.90,,,-99.99,,2014-02-07 15:53:00,
2014-02-07 10:23:00,10.0,7.0,29.74,SW,228,4.0,9.0,87,1.90,,,-99.99,,2014-02-07 16:23:00,
2014-02-07 10:52:00,12.0,8.0,29.72,SW,232,7.0,11.0,84,1.90,,,-99.99,,2014-02-07 16:52:00,
2014-02-07 11:22:00,14.0,9.0,29.71,West,274,7.0,12.0,81,1.90,,,-99.99,,2014-02-07 17:22:00,
2014-02-07 11:53:00,14.0,9.0,29.68,SSW,205,9.0,15.0,80,1.90,,,-99.99,,2014-02-07 17:53:00,
2014-02-07 12:22:00,16.0,10.0,29.68,WSW,239,9.0,14.0,76,1.90,,,-99.99,,2014-02-07 18:22:00,
2014-02-07 12:52:00,16.0,9.0,29.65,SSW,204,7.0,14.0,75,1.90,,,-99.99,,2014-02-07 18:52:00,
2014-02-07 13:22:00,16.0,9.0,29.63,SSW,210,7.0,15.0,74,1.91,,,-99.99,,2014-02-07 19:22:00,
2014-02-07 13:52:00,17.0,10.0,29.61,SW,225,8.0,15.0,73,1.91,,,-99.99,,2014-02-07 19:52:00,
2014-02-07 14:22:00,17.0,10.0,29.57,SSW,212,7.0,12.0,73,1.91,,,-99.99,,2014-02-07 20:22:00,
2014-02-07 14:52:00,17.0,10.0,29.57,SW,221,9.0,14.0,72,1.91,,,-99.99,,2014-02-07 20:52:00,
2014-02-07 15:22:00,16.0,10.0,29.55,SSW,212,8.0,13.0,76,1.91,,,-99.99,,2014-02-07 21:22:00,
2014-02-07 15:53:00,16.0,10.0,29.54,SSW,204,7.0,11.0,78,1.91,,,-99.99,,2014-02-07 21:53:00,
2014-02-07 16:23:00,15.0,10.0,29.54,South,180,5.0,10.0,80,1.91,,,-99.99,,2014-02-07 22:23:00,
2014-02-07 16:53:00,15.0,10.0,29.54,SSE,159,5.0,9.0,81,1.91,,,-99.99,,2014-02-07 22:53:00,
2014-02-07 17:22:00,14.0,10.0,29.52,SSW,203,6.0,10.0,82,1.91,,,-99.99,,2014-02-07 23:22:00,
2014-02-07 17:53:00,14.0,10.0,29.53,South,191,5.0,8.0,84,1.91,,,-99.99,,2014-02-07 23:53:00,
2014-02-07 18:22:00,13.0,9.0,29.53,South,177,7.0,12.0,85,1.91,,,-99.99,,2014-02-08 00:22:00,
2014-02-07 18:52:00,13.0,10.0,29.54,South,172,6.0,10.0,86,1.91,,,-99.99,,2014-02-08 00:52:00,
2014-02-07 19:22:00,13.0,10.0,29.55,South,179,6.0,9.0,88,1.91,,,-99.99,,2014-02-08 01:22:00,
2014-02-07 19:52:00,12.0,9.0,29.55,SSW,207,7.0,12.0,88,1.91,,,-99.99,,2014-02-08 01:52:00,
2014-02-07 20:22:00,12.0,9.0,29.55,SSW,203,4.0,10.0,88,1.91,,,-99.99,,2014-02-08 02:22:00,
2014-02-07 20:52:00,13.0,10.0,29.55,SW,217,5.0,11.0,88,1.91,,,-99.99,,2014-02-08 02:52:00,
2014-02-07 21:22:00,12.0,9.0,29.55,SW,217,8.0,14.0,88,1.91,,,-99.99,,2014-02-08 03:22:00,
2014-02-07 21:54:00,12.0,9.0,29.54,SW,219,3.0,7.0,88,1.91,,,-99.99,,2014-02-08 03:54:00,
2014-02-07 22:23:00,12.0,9.0,29.54,South,183,6.0,10.0,89,1.91,,,-99.99,,2014-02-08 04:23:00,
2014-02-07 22:53:00,12.0,10.0,29.53,SSW,197,3.0,6.0,90,1.91,,,-99.99,,2014-02-08 04:53:00,
2014-02-07 23:22:00,12.0,10.0,29.53,South,191,5.0,9.0,90,1.91,,,-99.99,,2014-02-08 05:22:00,
2014-02-07 23:53:00,11.0,9.0,29.49,SSW,195,6.0,9.0,91,1.91,,,-99.99,,2014-02-08 05:53:00,